createdAt,value
2023-01-19T00:19:03.049Z,0.30
2023-01-19T00:24:05.269Z,0.40
2023-01-19T00:29:10.329Z,0.30
2023-01-19T00:39:14.307Z,0.40
2023-01-19T01:19:32.249Z,0.20
2023-01-19T01:24:34.013Z,0.20
2023-01-19T01:29:35.792Z,0.20
2023-01-19T01:34:37.508Z,0.30
2023-01-19T01:44:50.733Z,0.00
2023-01-19T01:50:04.329Z,0.00
2023-01-19T01:55:07.391Z,0.00
2023-01-19T02:00:12.107Z,0.10
2023-01-19T02:05:27.621Z,-0.10
2023-01-19T02:15:55.636Z,0.00
2023-01-19T02:21:19.137Z,0.10
2023-01-19T02:26:24.369Z,0.20
2023-01-19T02:31:28.504Z,0.30
2023-01-19T02:36:45.583Z,0.10
2023-01-19T02:41:52.648Z,0.10
2023-01-19T02:46:55.042Z,0.30
2023-01-19T02:51:58.017Z,0.30
2023-01-19T02:57:27.879Z,0.50
2023-01-19T03:02:56.024Z,0.50
2023-01-19T03:08:09.432Z,0.30
2023-01-19T03:13:31.077Z,0.30
2023-01-19T03:18:35.619Z,0.20
2023-01-19T03:23:41.841Z,0.40
2023-01-19T03:28:45.393Z,0.40
2023-01-19T03:34:09.145Z,0.40
2023-01-19T03:39:12.661Z,0.40
2023-01-19T03:44:14.685Z,0.30
2023-01-19T04:09:27.527Z,0.40
2023-01-19T04:54:46.567Z,1.00
2023-01-19T05:19:57.795Z,1.30
2023-01-19T05:24:59.601Z,1.40
2023-01-19T05:40:06.993Z,1.30
2023-01-19T05:45:09.269Z,0.90
2023-01-19T05:50:11.223Z,0.90
2023-01-19T06:00:17.706Z,1.10
2023-01-19T06:05:19.636Z,1.10
2023-01-19T06:45:38.613Z,0.80
2023-01-19T06:50:40.880Z,0.80
2023-01-19T06:55:45.984Z,0.70
2023-01-19T07:00:49.055Z,0.60
2023-01-19T07:05:54.103Z,0.80
2023-01-19T07:11:25.188Z,0.80
2023-01-19T07:16:23.671Z,0.90
2023-01-19T07:21:26.416Z,1.00
2023-01-19T07:31:32.734Z,1.00
2023-01-19T07:41:37.881Z,1.20
2023-01-19T07:46:39.900Z,1.10
2023-01-19T07:51:41.701Z,1.20
2023-01-19T07:56:43.598Z,1.30
2023-01-19T08:21:55.266Z,3.00
2023-01-19T08:27:01.854Z,4.10
2023-01-19T08:37:06.743Z,4.90
2023-01-19T08:42:08.502Z,4.70
2023-01-19T08:47:11.682Z,5.10
2023-01-19T08:52:13.521Z,5.50
2023-01-19T09:02:18.109Z,4.00
2023-01-19T09:12:22.268Z,4.40
2023-01-19T09:17:24.173Z,3.90
2023-01-19T09:22:25.970Z,4.70
2023-01-19T09:37:32.241Z,3.80
2023-01-19T09:42:45.077Z,3.90
2023-01-19T09:47:48.658Z,4.10
2023-01-19T09:53:15.543Z,4.10
2023-01-19T10:03:21.774Z,4.40
2023-01-19T10:08:45.136Z,3.80
2023-01-19T10:13:52.253Z,3.70
2023-01-19T10:18:59.572Z,3.80
2023-01-19T10:24:29.279Z,6.20
2023-01-19T10:29:37.584Z,3.10
2023-01-19T10:34:40.258Z,4.10
2023-01-19T10:39:42.940Z,4.30
2023-01-19T10:49:49.089Z,4.20
2023-01-19T10:54:51.099Z,4.90
2023-01-19T10:59:52.962Z,5.20
2023-01-19T11:05:00.632Z,5.20
2023-01-19T11:10:29.946Z,5.20
2023-01-19T11:15:42.301Z,5.30
2023-01-19T11:20:52.701Z,5.40
2023-01-19T11:25:58.169Z,5.40
2023-01-19T11:31:15.395Z,5.20
2023-01-19T11:36:23.715Z,5.30
2023-01-19T11:41:29.924Z,4.40
2023-01-19T11:46:34.740Z,4.50
2023-01-19T11:52:06.553Z,4.10
2023-01-19T11:57:15.051Z,3.90
2023-01-19T12:02:30.465Z,4.00
2023-01-19T12:07:35.183Z,4.10
2023-01-19T12:12:40.488Z,4.10
2023-01-19T12:17:48.804Z,4.10
2023-01-19T12:23:21.168Z,4.20
2023-01-19T12:28:32.876Z,3.80
2023-01-19T12:33:39.517Z,3.60
2023-01-19T12:38:56.399Z,3.60
2023-01-19T12:44:16.500Z,3.90
2023-01-19T12:49:33.999Z,3.90
2023-01-19T12:54:36.278Z,4.00
2023-01-19T12:59:39.820Z,4.00
2023-01-19T13:09:43.831Z,3.90
2023-01-19T13:20:17.168Z,3.70
2023-01-19T13:25:37.773Z,4.00
2023-01-19T13:30:51.030Z,4.00
2023-01-19T13:35:56.452Z,3.80
2023-01-19T13:41:01.933Z,3.80
2023-01-19T13:46:04.308Z,3.50
2023-01-19T13:51:18.717Z,3.20
2023-01-19T13:56:23.243Z,3.30
2023-01-19T14:01:28.884Z,3.40
2023-01-19T14:06:35.958Z,3.50
2023-01-19T14:11:38.036Z,3.60
2023-01-19T14:21:42.354Z,3.70
2023-01-19T14:26:48.859Z,3.50
2023-01-19T14:41:58.995Z,3.70
2023-01-19T14:47:03.153Z,3.70
2023-01-19T14:52:21.544Z,3.80
2023-01-19T14:57:23.961Z,3.80
2023-01-19T15:27:37.879Z,3.50
2023-01-19T15:32:43.753Z,3.50
2023-01-19T15:42:48.192Z,3.20
2023-01-19T15:47:49.898Z,3.10
2023-01-19T15:52:51.775Z,3.10
2023-01-19T16:18:06.623Z,0.60
2023-01-19T16:38:24.608Z,2.30
2023-01-19T16:48:32.906Z,2.30
2023-01-19T16:58:38.496Z,2.40
2023-01-19T17:03:40.834Z,3.60
2023-01-19T17:23:51.858Z,2.40
2023-01-19T17:29:05.384Z,2.60
2023-01-19T17:39:14.821Z,2.70
2023-01-19T17:49:19.093Z,2.80
2023-01-19T18:19:31.938Z,2.70
2023-01-19T18:29:35.931Z,2.50
2023-01-19T18:34:37.926Z,2.80
2023-01-19T18:54:48.267Z,2.70
2023-01-19T19:09:54.488Z,2.30
2023-01-19T19:35:05.547Z,2.50
2023-01-19T19:40:08.023Z,2.60
2023-01-19T19:45:10.512Z,2.70
2023-01-19T19:50:12.916Z,2.80
2023-01-19T20:06:49.902Z,2.60
2023-01-19T20:11:52.307Z,2.70
2023-01-19T20:16:54.537Z,2.80
2023-01-19T20:37:04.692Z,2.80
2023-01-19T20:42:11.007Z,2.80
2023-01-19T21:07:22.256Z,2.50
2023-01-19T21:32:32.851Z,3.00
2023-01-19T22:08:06.308Z,2.80
2023-01-19T22:53:32.822Z,2.90
2023-01-19T23:03:37.609Z,2.80
2023-01-19T23:28:56.959Z,2.80
2023-01-19T23:34:05.063Z,2.70
2023-01-19T23:39:15.925Z,2.80
2023-01-19T23:44:18.146Z,2.70
